sensor_id;sensor_type;location;lat;lon;timestamp;temperature;humidity
46608;DHT22;32330;51.936;7.184;2023-09-19T03:48:35;14.70;10.00
46608;DHT22;32330;51.936;7.184;2023-09-19T03:51:02;14.70;10.00
46608;DHT22;32330;51.936;7.184;2023-09-19T03:53:30;14.60;12.70
46608;DHT22;32330;51.936;7.184;2023-09-19T03:55:57;14.60;12.60
46608;DHT22;32330;51.936;7.184;2023-09-19T03:58:25;14.50;9.10
46608;DHT22;32330;51.936;7.184;2023-09-19T04:00:55;14.50;8.60
46608;DHT22;32330;51.936;7.184;2023-09-19T04:03:22;14.50;7.30
46608;DHT22;32330;51.936;7.184;2023-09-19T04:05:51;14.50;7.90
46608;DHT22;32330;51.936;7.184;2023-09-19T04:08:18;14.40;7.00
46608;DHT22;32330;51.936;7.184;2023-09-19T04:10:45;14.40;6.40
46608;DHT22;32330;51.936;7.184;2023-09-19T04:13:12;14.40;5.90
46608;DHT22;32330;51.936;7.184;2023-09-19T04:15:41;14.30;6.80
46608;DHT22;32330;51.936;7.184;2023-09-19T04:18:08;14.30;7.50
46608;DHT22;32330;51.936;7.184;2023-09-19T04:20:35;14.30;6.60
46608;DHT22;32330;51.936;7.184;2023-09-19T04:23:03;14.30;4.30
46608;DHT22;32330;51.936;7.184;2023-09-19T04:25:31;14.20;3.80
46608;DHT22;32330;51.936;7.184;2023-09-19T04:27:58;14.20;5.70
46608;DHT22;32330;51.936;7.184;2023-09-19T04:30:25;14.20;2.20
46608;DHT22;32330;51.936;7.184;2023-09-19T04:32:52;14.20;2.80
46608;DHT22;32330;51.936;7.184;2023-09-19T04:35:19;14.10;2.00
46608;DHT22;32330;51.936;7.184;2023-09-19T04:37:46;14.20;1.00
46608;DHT22;32330;51.936;7.184;2023-09-19T04:40:15;14.10;1.00
46608;DHT22;32330;51.936;7.184;2023-09-19T04:42:45;14.10;1.00
46608;DHT22;32330;51.936;7.184;2023-09-19T04:45:18;14.10;1.00
46608;DHT22;32330;51.936;7.184;2023-09-19T04:47:45;14.00;1.00
46608;DHT22;32330;51.936;7.184;2023-09-19T04:50:12;14.10;1.00
46608;DHT22;32330;51.936;7.184;2023-09-19T04:52:40;14.00;1.00
46608;DHT22;32330;51.936;7.184;2023-09-19T04:55:10;14.00;1.00
46608;DHT22;32330;51.936;7.184;2023-09-19T04:57:44;14.00;1.00
46608;DHT22;32330;51.936;7.184;2023-09-19T05:00:13;14.00;1.00
46608;DHT22;32330;51.936;7.184;2023-09-19T05:02:42;14.00;1.00
46608;DHT22;32330;51.936;7.184;2023-09-19T05:05:10;14.00;1.00
46608;DHT22;32330;51.936;7.184;2023-09-19T05:07:41;13.90;1.00
46608;DHT22;32330;51.936;7.184;2023-09-19T05:10:11;13.90;1.00
46608;DHT22;32330;51.936;7.184;2023-09-19T05:12:39;13.90;1.00
46608;DHT22;32330;51.936;7.184;2023-09-19T05:15:08;13.90;1.00
46608;DHT22;32330;51.936;7.184;2023-09-19T05:17:35;13.90;1.00
46608;DHT22;32330;51.936;7.184;2023-09-19T05:20:03;13.90;3.90
46608;DHT22;32330;51.936;7.184;2023-09-19T05:22:40;13.90;17.00
46608;DHT22;32330;51.936;7.184;2023-09-19T05:25:08;13.90;19.30
46608;DHT22;32330;51.936;7.184;2023-09-19T05:27:35;13.90;25.90
46608;DHT22;32330;51.936;7.184;2023-09-19T05:30:03;13.90;40.20
46608;DHT22;32330;51.936;7.184;2023-09-19T05:32:32;13.90;33.60
46608;DHT22;32330;51.936;7.184;2023-09-19T05:34:58;13.90;42.70
46608;DHT22;32330;51.936;7.184;2023-09-19T05:37:25;13.90;39.00
46608;DHT22;32330;51.936;7.184;2023-09-19T05:39:52;13.90;34.10
46608;DHT22;32330;51.936;7.184;2023-09-19T05:42:19;13.90;36.60
46608;DHT22;32330;51.936;7.184;2023-09-19T05:44:46;14.00;34.90
46608;DHT22;32330;51.936;7.184;2023-09-19T05:47:13;14.00;32.40
46608;DHT22;32330;51.936;7.184;2023-09-19T05:49:42;14.10;35.80
46608;DHT22;32330;51.936;7.184;2023-09-19T05:52:09;14.10;31.00
46608;DHT22;32330;51.936;7.184;2023-09-19T05:54:36;14.10;46.20
46608;DHT22;32330;51.936;7.184;2023-09-19T05:57:03;14.20;46.40
46608;DHT22;32330;51.936;7.184;2023-09-19T05:59:30;14.20;35.00
46608;DHT22;32330;51.936;7.184;2023-09-19T06:01:59;14.30;33.50
46608;DHT22;32330;51.936;7.184;2023-09-19T06:04:26;14.30;25.20
46608;DHT22;32330;51.936;7.184;2023-09-19T06:06:54;14.40;24.60
46608;DHT22;32330;51.936;7.184;2023-09-19T06:09:21;14.40;23.50
46608;DHT22;32330;51.936;7.184;2023-09-19T06:11:48;14.40;22.60
46608;DHT22;32330;51.936;7.184;2023-09-19T06:14:17;14.40;24.90
46608;DHT22;32330;51.936;7.184;2023-09-19T06:16:45;14.40;9.50
46608;DHT22;32330;51.936;7.184;2023-09-19T06:19:12;14.50;7.80
46608;DHT22;32330;51.936;7.184;2023-09-19T06:21:39;14.40;10.10
46608;DHT22;32330;51.936;7.184;2023-09-19T06:24:08;14.50;9.80
46608;DHT22;32330;51.936;7.184;2023-09-19T06:26:35;14.50;13.00
46608;DHT22;32330;51.936;7.184;2023-09-19T06:29:02;14.50;18.30
46608;DHT22;32330;51.936;7.184;2023-09-19T06:31:33;14.50;1.20
46608;DHT22;32330;51.936;7.184;2023-09-19T06:34:00;14.50;1.00
46608;DHT22;32330;51.936;7.184;2023-09-19T06:36:28;14.50;1.00
46608;DHT22;32330;51.936;7.184;2023-09-19T06:38:55;14.50;1.00
46608;DHT22;32330;51.936;7.184;2023-09-19T06:41:24;14.60;1.00
46608;DHT22;32330;51.936;7.184;2023-09-19T06:43:51;14.60;1.00
46608;DHT22;32330;51.936;7.184;2023-09-19T06:46:19;14.60;1.00
46608;DHT22;32330;51.936;7.184;2023-09-19T06:48:46;14.60;1.00
46608;DHT22;32330;51.936;7.184;2023-09-19T06:51:15;14.70;1.00
46608;DHT22;32330;51.936;7.184;2023-09-19T06:53:42;14.70;1.00
46608;DHT22;32330;51.936;7.184;2023-09-19T06:56:09;14.70;1.00
46608;DHT22;32330;51.936;7.184;2023-09-19T06:58:37;14.70;1.00
46608;DHT22;32330;51.936;7.184;2023-09-19T07:01:04;14.80;1.00
46608;DHT22;32330;51.936;7.184;2023-09-19T07:03:31;14.90;1.00
46608;DHT22;32330;51.936;7.184;2023-09-19T07:05:59;14.90;1.00
46608;DHT22;32330;51.936;7.184;2023-09-19T07:08:26;14.90;2.30
46608;DHT22;32330;51.936;7.184;2023-09-19T07:10:53;15.00;18.00
46608;DHT22;32330;51.936;7.184;2023-09-19T07:13:22;15.00;25.90
46608;DHT22;32330;51.936;7.184;2023-09-19T07:15:52;15.10;44.90
46608;DHT22;32330;51.936;7.184;2023-09-19T07:18:20;15.20;89.10
46608;DHT22;32330;51.936;7.184;2023-09-19T07:20:47;15.30;93.60
46608;DHT22;32330;51.936;7.184;2023-09-19T07:23:18;15.30;99.90
46608;DHT22;32330;51.936;7.184;2023-09-19T07:25:47;15.40;99.90
46608;DHT22;32330;51.936;7.184;2023-09-19T07:28:15;15.50;99.90
46608;DHT22;32330;51.936;7.184;2023-09-19T07:30:42;15.50;99.90
46608;DHT22;32330;51.936;7.184;2023-09-19T07:33:11;15.60;99.90
46608;DHT22;32330;51.936;7.184;2023-09-19T07:35:38;15.70;99.90
46608;DHT22;32330;51.936;7.184;2023-09-19T07:38:06;15.70;99.90
46608;DHT22;32330;51.936;7.184;2023-09-19T07:40:34;15.70;99.90
46608;DHT22;32330;51.936;7.184;2023-09-19T07:43:02;15.70;99.90
46608;DHT22;32330;51.936;7.184;2023-09-19T07:45:30;15.80;99.90
46608;DHT22;32330;51.936;7.184;2023-09-19T07:47:57;15.90;99.90
46608;DHT22;32330;51.936;7.184;2023-09-19T07:50:27;15.90;99.90
46608;DHT22;32330;51.936;7.184;2023-09-19T07:52:54;15.90;99.90
46608;DHT22;32330;51.936;7.184;2023-09-19T07:55:22;15.90;99.90
46608;DHT22;32330;51.936;7.184;2023-09-19T07:57:51;16.00;99.90
46608;DHT22;32330;51.936;7.184;2023-09-19T08:00:18;16.00;99.90
46608;DHT22;32330;51.936;7.184;2023-09-19T08:02:45;16.00;99.90
46608;DHT22;32330;51.936;7.184;2023-09-19T08:05:13;16.00;99.90
46608;DHT22;32330;51.936;7.184;2023-09-19T08:07:45;16.10;99.90
46608;DHT22;32330;51.936;7.184;2023-09-19T08:10:14;16.30;99.90
46608;DHT22;32330;51.936;7.184;2023-09-19T08:12:42;16.30;99.90
46608;DHT22;32330;51.936;7.184;2023-09-19T08:15:12;16.40;99.90
46608;DHT22;32330;51.936;7.184;2023-09-19T08:17:40;16.40;99.90
46608;DHT22;32330;51.936;7.184;2023-09-19T08:20:08;16.50;99.90
46608;DHT22;32330;51.936;7.184;2023-09-19T08:22:46;16.50;99.90
46608;DHT22;32330;51.936;7.184;2023-09-19T08:25:14;16.50;99.90
46608;DHT22;32330;51.936;7.184;2023-09-19T08:27:43;16.50;99.90
46608;DHT22;32330;51.936;7.184;2023-09-19T08:30:13;16.60;99.90
46608;DHT22;32330;51.936;7.184;2023-09-19T08:32:41;16.60;99.90
46608;DHT22;32330;51.936;7.184;2023-09-19T08:35:09;16.70;99.90
46608;DHT22;32330;51.936;7.184;2023-09-19T08:37:36;16.90;99.90
46608;DHT22;32330;51.936;7.184;2023-09-19T08:40:08;17.00;99.90
46608;DHT22;32330;51.936;7.184;2023-09-19T08:42:48;17.00;99.90
46608;DHT22;32330;51.936;7.184;2023-09-19T08:45:16;17.10;99.90
46608;DHT22;32330;51.936;7.184;2023-09-19T08:47:46;17.30;99.90
46608;DHT22;32330;51.936;7.184;2023-09-19T08:50:19;17.30;99.90
46608;DHT22;32330;51.936;7.184;2023-09-19T08:52:52;17.40;99.90
46608;DHT22;32330;51.936;7.184;2023-09-19T08:55:25;17.60;99.90
46608;DHT22;32330;51.936;7.184;2023-09-19T08:57:59;17.60;99.90
46608;DHT22;32330;51.936;7.184;2023-09-19T09:00:28;17.60;99.90
46608;DHT22;32330;51.936;7.184;2023-09-19T09:02:59;17.80;99.90
46608;DHT22;32330;51.936;7.184;2023-09-19T09:05:28;17.90;99.90
46608;DHT22;32330;51.936;7.184;2023-09-19T09:07:55;17.80;99.90
46608;DHT22;32330;51.936;7.184;2023-09-19T09:10:25;17.80;99.90
46608;DHT22;32330;51.936;7.184;2023-09-19T09:12:53;17.80;99.90
46608;DHT22;32330;51.936;7.184;2023-09-19T09:15:21;17.90;99.90
46608;DHT22;32330;51.936;7.184;2023-09-19T09:17:49;18.00;99.90
46608;DHT22;32330;51.936;7.184;2023-09-19T09:20:17;18.10;99.90
46608;DHT22;32330;51.936;7.184;2023-09-19T09:22:51;18.40;99.90
46608;DHT22;32330;51.936;7.184;2023-09-19T09:25:19;18.50;99.90
46608;DHT22;32330;51.936;7.184;2023-09-19T09:27:58;18.40;99.90
46608;DHT22;32330;51.936;7.184;2023-09-19T09:30:36;18.40;99.90
46608;DHT22;32330;51.936;7.184;2023-09-19T09:33:11;18.30;99.90
46608;DHT22;32330;51.936;7.184;2023-09-19T09:35:48;18.60;99.90
46608;DHT22;32330;51.936;7.184;2023-09-19T09:38:18;18.60;99.90
46608;DHT22;32330;51.936;7.184;2023-09-19T09:40:49;18.60;99.90
46608;DHT22;32330;51.936;7.184;2023-09-19T09:43:29;18.60;99.90
46608;DHT22;32330;51.936;7.184;2023-09-19T09:46:11;18.70;99.90
46608;DHT22;32330;51.936;7.184;2023-09-19T09:49:02;18.90;99.90
46608;DHT22;32330;51.936;7.184;2023-09-19T09:52:00;18.80;99.90
46608;DHT22;32330;51.936;7.184;2023-09-19T09:54:31;18.70;99.90
46608;DHT22;32330;51.936;7.184;2023-09-19T09:57:03;18.60;99.90
46608;DHT22;32330;51.936;7.184;2023-09-19T10:00:01;18.80;99.90
46608;DHT22;32330;51.936;7.184;2023-09-19T10:02:42;18.90;99.90
46608;DHT22;32330;51.936;7.184;2023-09-19T10:05:13;19.10;99.90
46608;DHT22;32330;51.936;7.184;2023-09-19T10:07:47;19.00;99.90
46608;DHT22;32330;51.936;7.184;2023-09-19T10:10:29;19.30;99.90
46608;DHT22;32330;51.936;7.184;2023-09-19T10:13:05;19.20;99.90
46608;DHT22;32330;51.936;7.184;2023-09-19T10:15:35;19.20;99.90
46608;DHT22;32330;51.936;7.184;2023-09-19T10:18:05;19.40;99.90
46608;DHT22;32330;51.936;7.184;2023-09-19T10:20:34;19.70;99.90
46608;DHT22;32330;51.936;7.184;2023-09-19T10:23:06;19.80;99.90
46608;DHT22;32330;51.936;7.184;2023-09-19T10:25:37;19.90;99.90
46608;DHT22;32330;51.936;7.184;2023-09-19T10:28:06;19.50;99.90
46608;DHT22;32330;51.936;7.184;2023-09-19T10:30:43;19.40;99.90
46608;DHT22;32330;51.936;7.184;2023-09-19T10:33:12;19.60;99.90
46608;DHT22;32330;51.936;7.184;2023-09-19T10:35:41;19.80;99.90
46608;DHT22;32330;51.936;7.184;2023-09-19T10:38:10;19.90;99.90
46608;DHT22;32330;51.936;7.184;2023-09-19T10:40:38;19.80;99.90
46608;DHT22;32330;51.936;7.184;2023-09-19T10:43:12;19.50;99.90
46608;DHT22;32330;51.936;7.184;2023-09-19T10:45:41;19.50;99.90
46608;DHT22;32330;51.936;7.184;2023-09-19T10:48:10;19.40;99.90
46608;DHT22;32330;51.936;7.184;2023-09-19T10:50:43;19.50;99.90
46608;DHT22;32330;51.936;7.184;2023-09-19T10:53:12;19.60;99.90
46608;DHT22;32330;51.936;7.184;2023-09-19T10:55:40;20.00;99.90
46608;DHT22;32330;51.936;7.184;2023-09-19T10:58:08;20.40;99.90
46608;DHT22;32330;51.936;7.184;2023-09-19T11:00:52;20.30;99.90
46608;DHT22;32330;51.936;7.184;2023-09-19T11:03:21;20.30;99.90
46608;DHT22;32330;51.936;7.184;2023-09-19T11:06:07;20.40;99.90
46608;DHT22;32330;51.936;7.184;2023-09-19T11:09:00;20.20;99.90
46608;DHT22;32330;51.936;7.184;2023-09-19T11:11:46;20.20;99.90
46608;DHT22;32330;51.936;7.184;2023-09-19T11:14:37;20.10;99.90
46608;DHT22;32330;51.936;7.184;2023-09-19T11:20:25;19.90;99.90
46608;DHT22;32330;51.936;7.184;2023-09-19T11:23:27;20.10;99.90
46608;DHT22;32330;51.936;7.184;2023-09-19T11:25:57;20.30;99.90
46608;DHT22;32330;51.936;7.184;2023-09-19T11:28:34;20.40;99.90
46608;DHT22;32330;51.936;7.184;2023-09-19T11:40:30;20.80;99.70
46608;DHT22;32330;51.936;7.184;2023-09-19T11:42:58;21.00;99.60
46608;DHT22;32330;51.936;7.184;2023-09-19T11:46:03;20.70;99.90
46608;DHT22;32330;51.936;7.184;2023-09-19T11:48:32;20.60;99.90
46608;DHT22;32330;51.936;7.184;2023-09-19T11:51:01;21.00;99.90
46608;DHT22;32330;51.936;7.184;2023-09-19T11:53:33;20.80;99.90
46608;DHT22;32330;51.936;7.184;2023-09-19T11:56:06;20.90;99.90
46608;DHT22;32330;51.936;7.184;2023-09-19T11:58:37;21.00;99.90
46608;DHT22;32330;51.936;7.184;2023-09-19T12:01:06;20.90;99.90
46608;DHT22;32330;51.936;7.184;2023-09-19T12:03:43;20.90;99.90
46608;DHT22;32330;51.936;7.184;2023-09-19T12:06:14;20.70;99.90
46608;DHT22;32330;51.936;7.184;2023-09-19T12:08:41;20.60;99.90
46608;DHT22;32330;51.936;7.184;2023-09-19T12:11:15;20.50;99.90
46608;DHT22;32330;51.936;7.184;2023-09-19T12:13:43;20.40;99.90
46608;DHT22;32330;51.936;7.184;2023-09-19T12:16:13;20.50;99.90
46608;DHT22;32330;51.936;7.184;2023-09-19T12:18:42;20.80;99.90
46608;DHT22;32330;51.936;7.184;2023-09-19T12:21:23;21.00;99.90
46608;DHT22;32330;51.936;7.184;2023-09-19T12:24:03;20.80;99.90
46608;DHT22;32330;51.936;7.184;2023-09-19T12:26:39;20.70;99.90
46608;DHT22;32330;51.936;7.184;2023-09-19T12:29:14;21.00;99.90
46608;DHT22;32330;51.936;7.184;2023-09-19T12:31:50;21.00;99.90
46608;DHT22;32330;51.936;7.184;2023-09-19T12:34:20;20.90;99.90
46608;DHT22;32330;51.936;7.184;2023-09-19T12:36:48;21.00;99.90
46608;DHT22;32330;51.936;7.184;2023-09-19T12:39:24;20.90;99.90
46608;DHT22;32330;51.936;7.184;2023-09-19T12:41:54;20.80;99.90
46608;DHT22;32330;51.936;7.184;2023-09-19T12:44:22;20.70;99.90
46608;DHT22;32330;51.936;7.184;2023-09-19T12:46:51;20.70;99.90
46608;DHT22;32330;51.936;7.184;2023-09-19T12:49:20;20.80;99.90
46608;DHT22;32330;51.936;7.184;2023-09-19T12:51:49;20.90;99.90
46608;DHT22;32330;51.936;7.184;2023-09-19T12:54:21;20.90;99.90
46608;DHT22;32330;51.936;7.184;2023-09-19T12:56:48;20.90;99.90
46608;DHT22;32330;51.936;7.184;2023-09-19T12:59:17;20.90;99.90
46608;DHT22;32330;51.936;7.184;2023-09-19T13:02:04;20.90;99.90
46608;DHT22;32330;51.936;7.184;2023-09-19T13:04:33;21.00;99.90
46608;DHT22;32330;51.936;7.184;2023-09-19T13:07:05;20.90;99.90
46608;DHT22;32330;51.936;7.184;2023-09-19T13:09:34;21.10;99.90
46608;DHT22;32330;51.936;7.184;2023-09-19T13:12:01;21.30;99.90
46608;DHT22;32330;51.936;7.184;2023-09-19T13:14:30;21.10;99.00
46608;DHT22;32330;51.936;7.184;2023-09-19T13:17:00;21.00;99.70
46608;DHT22;32330;51.936;7.184;2023-09-19T13:19:40;21.20;99.20
46608;DHT22;32330;51.936;7.184;2023-09-19T13:22:37;21.30;99.10
46608;DHT22;32330;51.936;7.184;2023-09-19T13:25:07;21.20;98.70
46608;DHT22;32330;51.936;7.184;2023-09-19T13:27:38;21.50;98.70
46608;DHT22;32330;51.936;7.184;2023-09-19T13:30:08;21.70;98.40
46608;DHT22;32330;51.936;7.184;2023-09-19T13:32:35;21.60;98.60
46608;DHT22;32330;51.936;7.184;2023-09-19T13:35:03;21.60;98.00
46608;DHT22;32330;51.936;7.184;2023-09-19T13:37:33;21.10;98.00
46608;DHT22;32330;51.936;7.184;2023-09-19T13:40:01;20.80;98.50
46608;DHT22;32330;51.936;7.184;2023-09-19T13:42:31;20.70;98.60
46608;DHT22;32330;51.936;7.184;2023-09-19T13:44:58;20.50;98.70
46608;DHT22;32330;51.936;7.184;2023-09-19T13:47:26;20.50;99.00
46608;DHT22;32330;51.936;7.184;2023-09-19T13:49:54;20.40;99.20
46608;DHT22;32330;51.936;7.184;2023-09-19T13:52:21;20.40;99.10
46608;DHT22;32330;51.936;7.184;2023-09-19T13:54:49;20.60;99.70
46608;DHT22;32330;51.936;7.184;2023-09-19T13:57:16;20.50;99.40
46608;DHT22;32330;51.936;7.184;2023-09-19T13:59:43;20.40;99.40
46608;DHT22;32330;51.936;7.184;2023-09-19T14:02:10;20.40;99.40
46608;DHT22;32330;51.936;7.184;2023-09-19T14:04:41;20.40;99.70
46608;DHT22;32330;51.936;7.184;2023-09-19T14:07:08;20.30;99.70
46608;DHT22;32330;51.936;7.184;2023-09-19T14:09:36;20.20;99.80
46608;DHT22;32330;51.936;7.184;2023-09-19T14:12:03;20.20;99.90
46608;DHT22;32330;51.936;7.184;2023-09-19T14:14:30;20.10;99.90
46608;DHT22;32330;51.936;7.184;2023-09-19T14:16:57;20.00;99.90
46608;DHT22;32330;51.936;7.184;2023-09-19T14:19:26;20.10;99.90
46608;DHT22;32330;51.936;7.184;2023-09-19T14:21:54;20.10;99.90
46608;DHT22;32330;51.936;7.184;2023-09-19T14:24:22;20.20;99.90
46608;DHT22;32330;51.936;7.184;2023-09-19T14:26:49;20.30;99.90
46608;DHT22;32330;51.936;7.184;2023-09-19T14:29:16;20.30;99.90
46608;DHT22;32330;51.936;7.184;2023-09-19T14:31:43;20.30;99.90
46608;DHT22;32330;51.936;7.184;2023-09-19T14:34:10;20.20;99.90
46608;DHT22;32330;51.936;7.184;2023-09-19T14:36:38;20.20;99.90
46608;DHT22;32330;51.936;7.184;2023-09-19T14:39:06;20.10;99.90
46608;DHT22;32330;51.936;7.184;2023-09-19T14:41:33;20.10;99.90
46608;DHT22;32330;51.936;7.184;2023-09-19T14:44:02;20.20;99.90
46608;DHT22;32330;51.936;7.184;2023-09-19T14:46:30;20.20;99.90
46608;DHT22;32330;51.936;7.184;2023-09-19T14:48:57;20.10;99.90
46608;DHT22;32330;51.936;7.184;2023-09-19T14:51:26;20.00;99.90
46608;DHT22;32330;51.936;7.184;2023-09-19T14:53:53;20.00;99.90
46608;DHT22;32330;51.936;7.184;2023-09-19T14:56:21;19.90;99.90
46608;DHT22;32330;51.936;7.184;2023-09-19T14:58:49;19.90;99.90
46608;DHT22;32330;51.936;7.184;2023-09-19T15:01:16;19.90;99.90
46608;DHT22;32330;51.936;7.184;2023-09-19T15:03:43;20.00;99.90
46608;DHT22;32330;51.936;7.184;2023-09-19T15:06:13;19.90;99.90
46608;DHT22;32330;51.936;7.184;2023-09-19T15:08:41;20.00;99.90
46608;DHT22;32330;51.936;7.184;2023-09-19T15:11:11;20.10;99.90
46608;DHT22;32330;51.936;7.184;2023-09-19T15:13:39;20.00;99.90
46608;DHT22;32330;51.936;7.184;2023-09-19T15:16:08;20.10;99.90
46608;DHT22;32330;51.936;7.184;2023-09-19T15:18:36;20.10;99.90
46608;DHT22;32330;51.936;7.184;2023-09-19T15:21:05;20.10;99.90
46608;DHT22;32330;51.936;7.184;2023-09-19T15:23:32;19.90;99.90
46608;DHT22;32330;51.936;7.184;2023-09-19T15:26:01;20.00;99.90
46608;DHT22;32330;51.936;7.184;2023-09-19T15:28:28;19.90;99.90
46608;DHT22;32330;51.936;7.184;2023-09-19T15:31:01;19.90;99.90
46608;DHT22;32330;51.936;7.184;2023-09-19T15:33:29;19.90;99.90
46608;DHT22;32330;51.936;7.184;2023-09-19T15:36:03;20.00;99.90
46608;DHT22;32330;51.936;7.184;2023-09-19T15:38:31;20.10;99.90
46608;DHT22;32330;51.936;7.184;2023-09-19T15:40:59;20.00;99.90
46608;DHT22;32330;51.936;7.184;2023-09-19T15:43:26;19.90;99.90
46608;DHT22;32330;51.936;7.184;2023-09-19T15:45:53;19.90;99.90
46608;DHT22;32330;51.936;7.184;2023-09-19T15:48:22;19.90;99.90
46608;DHT22;32330;51.936;7.184;2023-09-19T15:50:49;20.00;99.90
46608;DHT22;32330;51.936;7.184;2023-09-19T15:53:16;19.90;99.90
46608;DHT22;32330;51.936;7.184;2023-09-19T15:55:43;19.80;99.90
46608;DHT22;32330;51.936;7.184;2023-09-19T15:58:11;19.80;99.90
46608;DHT22;32330;51.936;7.184;2023-09-19T16:00:40;19.70;99.90
46608;DHT22;32330;51.936;7.184;2023-09-19T16:03:07;19.60;99.90
46608;DHT22;32330;51.936;7.184;2023-09-19T16:05:37;19.60;99.90
46608;DHT22;32330;51.936;7.184;2023-09-19T16:08:06;19.50;99.90
46608;DHT22;32330;51.936;7.184;2023-09-19T16:10:37;19.50;99.90
46608;DHT22;32330;51.936;7.184;2023-09-19T16:13:04;19.50;99.90
46608;DHT22;32330;51.936;7.184;2023-09-19T16:15:31;19.50;99.90
46608;DHT22;32330;51.936;7.184;2023-09-19T16:17:58;19.50;99.90
46608;DHT22;32330;51.936;7.184;2023-09-19T16:20:48;19.50;99.90
46608;DHT22;32330;51.936;7.184;2023-09-19T16:23:19;19.40;99.90
46608;DHT22;32330;51.936;7.184;2023-09-19T16:25:46;19.40;99.90
46608;DHT22;32330;51.936;7.184;2023-09-19T16:28:13;19.40;99.90
46608;DHT22;32330;51.936;7.184;2023-09-19T16:30:40;19.30;99.90
46608;DHT22;32330;51.936;7.184;2023-09-19T16:33:07;19.30;99.90
46608;DHT22;32330;51.936;7.184;2023-09-19T16:35:38;19.30;99.90
46608;DHT22;32330;51.936;7.184;2023-09-19T16:38:15;19.20;99.90
46608;DHT22;32330;51.936;7.184;2023-09-19T16:41:18;19.30;99.90
46608;DHT22;32330;51.936;7.184;2023-09-19T16:43:57;19.20;99.90
46608;DHT22;32330;51.936;7.184;2023-09-19T16:46:25;19.20;99.90
46608;DHT22;32330;51.936;7.184;2023-09-19T16:48:52;19.10;99.90
46608;DHT22;32330;51.936;7.184;2023-09-19T16:51:20;19.10;99.90
46608;DHT22;32330;51.936;7.184;2023-09-19T16:53:49;19.10;99.90
46608;DHT22;32330;51.936;7.184;2023-09-19T16:56:18;19.10;99.90
46608;DHT22;32330;51.936;7.184;2023-09-19T16:58:46;19.10;99.90
46608;DHT22;32330;51.936;7.184;2023-09-19T17:04:22;19.10;99.90
46608;DHT22;32330;51.936;7.184;2023-09-19T17:06:49;19.00;99.90
46608;DHT22;32330;51.936;7.184;2023-09-19T17:09:18;19.10;99.90
46608;DHT22;32330;51.936;7.184;2023-09-19T17:11:45;19.00;99.90
46608;DHT22;32330;51.936;7.184;2023-09-19T17:14:13;18.90;99.90
46608;DHT22;32330;51.936;7.184;2023-09-19T17:16:40;18.90;99.90
46608;DHT22;32330;51.936;7.184;2023-09-19T17:19:07;19.00;99.90
46608;DHT22;32330;51.936;7.184;2023-09-19T17:21:35;18.90;99.90
46608;DHT22;32330;51.936;7.184;2023-09-19T17:24:03;18.90;99.90
46608;DHT22;32330;51.936;7.184;2023-09-19T17:26:35;18.90;99.90
46608;DHT22;32330;51.936;7.184;2023-09-19T17:29:02;18.90;99.90
46608;DHT22;32330;51.936;7.184;2023-09-19T17:31:29;18.80;99.90
46608;DHT22;32330;51.936;7.184;2023-09-19T17:33:56;18.80;99.90
46608;DHT22;32330;51.936;7.184;2023-09-19T17:36:24;18.80;99.90
46608;DHT22;32330;51.936;7.184;2023-09-19T17:38:53;18.80;99.90
46608;DHT22;32330;51.936;7.184;2023-09-19T17:41:21;18.80;99.90
46608;DHT22;32330;51.936;7.184;2023-09-19T17:43:53;18.80;99.90
46608;DHT22;32330;51.936;7.184;2023-09-19T17:46:20;18.80;99.90
46608;DHT22;32330;51.936;7.184;2023-09-19T17:48:50;18.80;99.90
46608;DHT22;32330;51.936;7.184;2023-09-19T17:51:19;18.80;99.90
46608;DHT22;32330;51.936;7.184;2023-09-19T17:53:46;18.80;99.90
46608;DHT22;32330;51.936;7.184;2023-09-19T17:56:15;18.70;99.90
46608;DHT22;32330;51.936;7.184;2023-09-19T17:58:44;18.80;99.90
46608;DHT22;32330;51.936;7.184;2023-09-19T18:01:14;18.70;99.90
46608;DHT22;32330;51.936;7.184;2023-09-19T18:03:41;18.70;99.90
46608;DHT22;32330;51.936;7.184;2023-09-19T18:06:09;18.80;99.90
46608;DHT22;32330;51.936;7.184;2023-09-19T18:08:36;18.70;99.90
46608;DHT22;32330;51.936;7.184;2023-09-19T18:11:05;18.70;99.90
46608;DHT22;32330;51.936;7.184;2023-09-19T18:13:39;18.70;99.90
46608;DHT22;32330;51.936;7.184;2023-09-19T18:16:06;18.70;99.90
46608;DHT22;32330;51.936;7.184;2023-09-19T18:18:35;18.70;99.90
46608;DHT22;32330;51.936;7.184;2023-09-19T18:21:03;18.70;99.90
46608;DHT22;32330;51.936;7.184;2023-09-19T18:23:32;18.70;99.90
46608;DHT22;32330;51.936;7.184;2023-09-19T18:26:00;18.60;99.90
46608;DHT22;32330;51.936;7.184;2023-09-19T18:28:28;18.60;99.90
46608;DHT22;32330;51.936;7.184;2023-09-19T18:30:56;18.60;99.90
46608;DHT22;32330;51.936;7.184;2023-09-19T18:33:24;18.60;99.90
46608;DHT22;32330;51.936;7.184;2023-09-19T18:36:00;18.60;99.90
46608;DHT22;32330;51.936;7.184;2023-09-19T18:38:28;18.60;99.90
46608;DHT22;32330;51.936;7.184;2023-09-19T18:40:56;18.60;99.90
46608;DHT22;32330;51.936;7.184;2023-09-19T18:43:25;18.60;99.90
46608;DHT22;32330;51.936;7.184;2023-09-19T18:45:58;18.60;99.90
46608;DHT22;32330;51.936;7.184;2023-09-19T18:48:25;18.60;99.90
46608;DHT22;32330;51.936;7.184;2023-09-19T18:50:54;18.60;99.90
46608;DHT22;32330;51.936;7.184;2023-09-19T18:53:21;18.60;99.90
46608;DHT22;32330;51.936;7.184;2023-09-19T18:56:02;18.60;99.90
46608;DHT22;32330;51.936;7.184;2023-09-19T18:58:30;18.60;99.90
46608;DHT22;32330;51.936;7.184;2023-09-19T19:01:01;18.60;99.90
46608;DHT22;32330;51.936;7.184;2023-09-19T19:03:29;18.50;99.90
46608;DHT22;32330;51.936;7.184;2023-09-19T19:06:03;18.50;99.90
46608;DHT22;32330;51.936;7.184;2023-09-19T19:08:30;18.50;99.90
46608;DHT22;32330;51.936;7.184;2023-09-19T19:10:58;18.50;99.90
46608;DHT22;32330;51.936;7.184;2023-09-19T19:13:27;18.50;99.90
46608;DHT22;32330;51.936;7.184;2023-09-19T19:15:57;18.40;99.90
46608;DHT22;32330;51.936;7.184;2023-09-19T19:18:25;18.40;99.90
46608;DHT22;32330;51.936;7.184;2023-09-19T19:20:58;18.40;99.90
46608;DHT22;32330;51.936;7.184;2023-09-19T19:23:26;18.30;99.90
46608;DHT22;32330;51.936;7.184;2023-09-19T19:25:54;18.40;99.90
46608;DHT22;32330;51.936;7.184;2023-09-19T19:28:23;18.30;99.90
46608;DHT22;32330;51.936;7.184;2023-09-19T19:30:50;18.30;99.90
46608;DHT22;32330;51.936;7.184;2023-09-19T19:33:17;18.30;99.90
46608;DHT22;32330;51.936;7.184;2023-09-19T19:35:47;18.30;99.90
46608;DHT22;32330;51.936;7.184;2023-09-19T19:38:16;18.30;99.90
46608;DHT22;32330;51.936;7.184;2023-09-19T19:40:43;18.30;99.90
46608;DHT22;32330;51.936;7.184;2023-09-19T19:43:12;18.40;99.90
46608;DHT22;32330;51.936;7.184;2023-09-19T19:45:40;18.30;99.90
46608;DHT22;32330;51.936;7.184;2023-09-19T19:48:07;18.30;99.90
46608;DHT22;32330;51.936;7.184;2023-09-19T19:50:38;18.30;99.90
46608;DHT22;32330;51.936;7.184;2023-09-19T19:53:07;18.30;99.90